Takamine — 7JKK — position and weather

sailwx.info

Track history (hours):
 
Tides and Currents Weather Stations Pressure Air Temp Water Temp Dewpoint Dewpoint Depression Visibility Wind Speed Wind Dir Waves Ship Positions

Takamine

Last reported at 2017-Oct-27 06:08 UTC. Time now 2017-Nov-21 01:00 UTC.
Position N 01°19' E 103°17'.
Warning: this ship's position is 24 days out of date.

Length 333 m; draft 10.4 m.

Type: Tanker. MMSI: 432832000.

Date/timePositionNaut miles runAvg speedWind from/ knotsBaromVisibWave heightAir tempDewpointWater temp
2017-Oct-27 06:08N 01°19' E 103°17'212.7
2017-Oct-27 05:57N 01°18' E 103°19'612.9
2017-Oct-27 05:30N 01°14' E 103°24'713.2
2017-Oct-27 04:59N 01°13' E 103°30'613.3
2017-Oct-27 04:30N 01°11' E 103°37'612.7
2017-Oct-27 04:01N 01°09' E 103°42'510.0
2017-Oct-27 03:30N 01°10' E 103°47'612.4
2017-Oct-27 03:00N 01°13' E 103°53'611.1
2017-Oct-27 02:30N 01°15' E 103°58'5 9.2
2017-Oct-27 02:00N 01°16' E 104°03'2 0.5
2017-Oct-26 21:40N 01°18' E 104°04'0 0.0
2017-Oct-26 21:22N 01°18' E 104°04'0 0.0
2017-Oct-26 20:55N 01°18' E 104°04'0 0.0
2017-Oct-26 20:28N 01°18' E 104°04'0 0.0
2017-Oct-26 19:49N 01°18' E 104°04'0 0.0
2017-Oct-26 19:28N 01°18' E 104°04'0 0.1
2017-Oct-26 18:58N 01°18' E 104°04'0 0.1
2017-Oct-26 18:28N 01°18' E 104°04'0 0.1
2017-Oct-26 16:22N 01°18' E 104°05'0 0.1
2017-Oct-26 15:40N 01°18' E 104°05'0 0.0
2017-Oct-26 15:28N 01°18' E 104°05'0 0.1
2017-Oct-26 14:52N 01°18' E 104°05'0 0.0
2017-Oct-26 14:28N 01°18' E 104°05'0 0.0
2017-Oct-26 13:58N 01°18' E 104°05'0 0.0
2017-Oct-26 13:28N 01°18' E 104°05'0 0.0
2017-Oct-26 12:50N 01°18' E 104°05'0 0.0
2017-Oct-26 11:43N 01°18' E 104°05'0 0.1
2017-Oct-26 11:28N 01°18' E 104°05'0 0.0
2017-Oct-26 10:31N 01°18' E 104°05'0 0.0
2017-Oct-26 10:22N 01°18' E 104°05'0 0.0
2017-Oct-26 09:07N 01°18' E 104°05'0 0.0
2017-Oct-26 08:37N 01°18' E 104°05'0 0.0
2017-Oct-26 08:28N 01°18' E 104°05'0 0.0
2017-Oct-26 07:46N 01°18' E 104°05'0 0.1
2017-Oct-26 07:19N 01°18' E 104°05'0 0.1
2017-Oct-26 06:43N 01°18' E 104°05'0 0.2
2017-Oct-26 06:25N 01°18' E 104°05'0 0.2
2017-Oct-26 05:37N 01°18' E 104°04'0 0.2
2017-Oct-26 05:19N 01°18' E 104°04'0 0.1
2017-Oct-26 04:49N 01°18' E 104°04'0 0.1
2017-Oct-26 04:28N 01°18' E 104°04'0 0.1
2017-Oct-26 03:46N 01°18' E 104°04'0 0.0
2017-Oct-26 03:25N 01°18' E 104°04'0 0.2
2017-Oct-26 02:10N 01°18' E 104°04'0 2.5
2017-Oct-26 01:59N 01°17' E 104°05'2 3.9
2017-Oct-26 01:27N 01°17' E 104°07'3 5.8
2017-Oct-26 00:59N 01°17' E 104°09'8 9.4
2017-Oct-26 00:11N 01°18' E 104°17'4 7.4
2017-Oct-25 23:41N 01°19' E 104°20'1 6.9
2017-Oct-25 23:30N 01°20' E 104°21'  
Track history (hours):
 
Tides and Currents Weather Stations Pressure Air Temp Water Temp Dewpoint Dewpoint Depression Visibility Wind Speed Wind Dir Waves Ship Positions

Takamine

Last reported at 2017-Oct-27 06:08 UTC. Time now 2017-Nov-21 01:00 UTC.
Position N 01°19' E 103°17'.
Warning: this ship's position is 24 days out of date.

Length 333 m; draft 10.4 m.

Type: Tanker. MMSI: 432832000.

Date/timePositionNaut miles runAvg speedWind from/ knotsBaromVisibWave heightAir tempDewpointWater temp
2017-Oct-27 06:08N 01°19' E 103°17'212.7
2017-Oct-27 05:57N 01°18' E 103°19'612.9
2017-Oct-27 05:30N 01°14' E 103°24'713.2
2017-Oct-27 04:59N 01°13' E 103°30'613.3
2017-Oct-27 04:30N 01°11' E 103°37'612.7
2017-Oct-27 04:01N 01°09' E 103°42'510.0
2017-Oct-27 03:30N 01°10' E 103°47'612.4
2017-Oct-27 03:00N 01°13' E 103°53'611.1
2017-Oct-27 02:30N 01°15' E 103°58'5 9.2
2017-Oct-27 02:00N 01°16' E 104°03'2 0.5
2017-Oct-26 21:40N 01°18' E 104°04'0 0.0
2017-Oct-26 21:22N 01°18' E 104°04'0 0.0
2017-Oct-26 20:55N 01°18' E 104°04'0 0.0
2017-Oct-26 20:28N 01°18' E 104°04'0 0.0
2017-Oct-26 19:49N 01°18' E 104°04'0 0.0
2017-Oct-26 19:28N 01°18' E 104°04'0 0.1
2017-Oct-26 18:58N 01°18' E 104°04'0 0.1
2017-Oct-26 18:28N 01°18' E 104°04'0 0.1
2017-Oct-26 16:22N 01°18' E 104°05'0 0.1
2017-Oct-26 15:40N 01°18' E 104°05'0 0.0
2017-Oct-26 15:28N 01°18' E 104°05'0 0.1
2017-Oct-26 14:52N 01°18' E 104°05'0 0.0
2017-Oct-26 14:28N 01°18' E 104°05'0 0.0
2017-Oct-26 13:58N 01°18' E 104°05'0 0.0
2017-Oct-26 13:28N 01°18' E 104°05'0 0.0
2017-Oct-26 12:50N 01°18' E 104°05'0 0.0
2017-Oct-26 11:43N 01°18' E 104°05'0 0.1
2017-Oct-26 11:28N 01°18' E 104°05'0 0.0
2017-Oct-26 10:31N 01°18' E 104°05'0 0.0
2017-Oct-26 10:22N 01°18' E 104°05'0 0.0
2017-Oct-26 09:07N 01°18' E 104°05'0 0.0
2017-Oct-26 08:37N 01°18' E 104°05'0 0.0
2017-Oct-26 08:28N 01°18' E 104°05'0 0.0
2017-Oct-26 07:46N 01°18' E 104°05'0 0.1
2017-Oct-26 07:19N 01°18' E 104°05'0 0.1
2017-Oct-26 06:43N 01°18' E 104°05'0 0.2
2017-Oct-26 06:25N 01°18' E 104°05'0 0.2
2017-Oct-26 05:37N 01°18' E 104°04'0 0.2
2017-Oct-26 05:19N 01°18' E 104°04'0 0.1
2017-Oct-26 04:49N 01°18' E 104°04'0 0.1
2017-Oct-26 04:28N 01°18' E 104°04'0 0.1
2017-Oct-26 03:46N 01°18' E 104°04'0 0.0
2017-Oct-26 03:25N 01°18' E 104°04'0 0.2
2017-Oct-26 02:10N 01°18' E 104°04'0 2.5
2017-Oct-26 01:59N 01°17' E 104°05'2 3.9
2017-Oct-26 01:27N 01°17' E 104°07'3 5.8
2017-Oct-26 00:59N 01°17' E 104°09'8 9.4
2017-Oct-26 00:11N 01°18' E 104°17'4 7.4
2017-Oct-25 23:41N 01°19' E 104°20'1 6.9
2017-Oct-25 23:30N 01°20' E 104°21'  

Dump ship's entire track history